sensor_id;sensor_type;location;lat;lon;timestamp;P1;durP1;ratioP1;P2;durP2;ratioP2
68192;SDS011;55012;47.562;18.414;2023-06-14T00:00:39;11.93;;;5.55;;
68192;SDS011;55012;47.562;18.414;2023-06-14T00:03:06;12.35;;;5.57;;
68192;SDS011;55012;47.562;18.414;2023-06-14T00:05:33;9.13;;;5.28;;
68192;SDS011;55012;47.562;18.414;2023-06-14T00:08:03;19.90;;;8.65;;
68192;SDS011;55012;47.562;18.414;2023-06-14T00:10:33;16.58;;;6.25;;
68192;SDS011;55012;47.562;18.414;2023-06-14T00:13:00;16.85;;;7.75;;
68192;SDS011;55012;47.562;18.414;2023-06-14T00:15:30;14.73;;;7.07;;
68192;SDS011;55012;47.562;18.414;2023-06-14T00:17:56;17.48;;;7.88;;
68192;SDS011;55012;47.562;18.414;2023-06-14T00:20:26;19.10;;;7.72;;
68192;SDS011;55012;47.562;18.414;2023-06-14T00:22:52;17.52;;;8.30;;
68192;SDS011;55012;47.562;18.414;2023-06-14T00:25:20;19.27;;;8.25;;
68192;SDS011;55012;47.562;18.414;2023-06-14T00:27:45;16.98;;;7.25;;
68192;SDS011;55012;47.562;18.414;2023-06-14T00:30:11;13.73;;;6.80;;
68192;SDS011;55012;47.562;18.414;2023-06-14T00:32:37;13.25;;;6.65;;
68192;SDS011;55012;47.562;18.414;2023-06-14T00:35:02;11.80;;;6.40;;
68192;SDS011;55012;47.562;18.414;2023-06-14T00:37:28;14.52;;;6.53;;
68192;SDS011;55012;47.562;18.414;2023-06-14T00:39:53;12.70;;;6.30;;
68192;SDS011;55012;47.562;18.414;2023-06-14T00:42:25;14.10;;;6.63;;
68192;SDS011;55012;47.562;18.414;2023-06-14T00:44:51;14.20;;;6.45;;
68192;SDS011;55012;47.562;18.414;2023-06-14T00:47:17;16.70;;;6.15;;
68192;SDS011;55012;47.562;18.414;2023-06-14T00:49:45;16.30;;;6.60;;
68192;SDS011;55012;47.562;18.414;2023-06-14T00:52:11;12.07;;;4.88;;
68192;SDS011;55012;47.562;18.414;2023-06-14T00:54:37;8.27;;;4.22;;
68192;SDS011;55012;47.562;18.414;2023-06-14T00:57:03;7.60;;;4.60;;
68192;SDS011;55012;47.562;18.414;2023-06-14T00:59:29;17.95;;;7.40;;
68192;SDS011;55012;47.562;18.414;2023-06-14T01:01:55;28.00;;;10.43;;
68192;SDS011;55012;47.562;18.414;2023-06-14T01:04:20;29.65;;;9.82;;
68192;SDS011;55012;47.562;18.414;2023-06-14T01:15:05;37.47;;;17.73;;
68192;SDS011;55012;47.562;18.414;2023-06-14T01:17:32;24.88;;;11.38;;
68192;SDS011;55012;47.562;18.414;2023-06-14T01:20:00;33.67;;;14.27;;
68192;SDS011;55012;47.562;18.414;2023-06-14T01:22:28;43.70;;;17.83;;
68192;SDS011;55012;47.562;18.414;2023-06-14T01:24:54;56.55;;;19.42;;
68192;SDS011;55012;47.562;18.414;2023-06-14T01:27:23;47.78;;;19.55;;
68192;SDS011;55012;47.562;18.414;2023-06-14T01:29:53;34.45;;;16.42;;
68192;SDS011;55012;47.562;18.414;2023-06-14T01:32:22;28.85;;;14.95;;
68192;SDS011;55012;47.562;18.414;2023-06-14T01:34:51;19.63;;;9.88;;
68192;SDS011;55012;47.562;18.414;2023-06-14T01:37:16;21.13;;;9.18;;
68192;SDS011;55012;47.562;18.414;2023-06-14T01:39:44;12.93;;;6.35;;
68192;SDS011;55012;47.562;18.414;2023-06-14T01:42:10;12.48;;;5.70;;
68192;SDS011;55012;47.562;18.414;2023-06-14T01:44:38;12.73;;;6.72;;
68192;SDS011;55012;47.562;18.414;2023-06-14T01:47:04;10.80;;;5.47;;
68192;SDS011;55012;47.562;18.414;2023-06-14T01:49:33;7.13;;;4.47;;
68192;SDS011;55012;47.562;18.414;2023-06-14T01:52:00;7.75;;;4.40;;
68192;SDS011;55012;47.562;18.414;2023-06-14T01:54:25;7.97;;;4.10;;
68192;SDS011;55012;47.562;18.414;2023-06-14T01:56:50;8.73;;;4.35;;
68192;SDS011;55012;47.562;18.414;2023-06-14T01:59:16;7.63;;;4.07;;
68192;SDS011;55012;47.562;18.414;2023-06-14T02:01:41;8.52;;;4.32;;
68192;SDS011;55012;47.562;18.414;2023-06-14T02:04:07;8.73;;;4.97;;
68192;SDS011;55012;47.562;18.414;2023-06-14T02:06:32;7.28;;;4.10;;
68192;SDS011;55012;47.562;18.414;2023-06-14T02:09:00;6.53;;;4.15;;
68192;SDS011;55012;47.562;18.414;2023-06-14T02:11:26;7.68;;;4.20;;
68192;SDS011;55012;47.562;18.414;2023-06-14T02:13:52;10.95;;;5.28;;
68192;SDS011;55012;47.562;18.414;2023-06-14T02:16:17;11.18;;;6.00;;
68192;SDS011;55012;47.562;18.414;2023-06-14T02:18:43;12.90;;;6.90;;
68192;SDS011;55012;47.562;18.414;2023-06-14T02:21:08;11.27;;;6.35;;
68192;SDS011;55012;47.562;18.414;2023-06-14T02:23:34;12.05;;;6.20;;
68192;SDS011;55012;47.562;18.414;2023-06-14T02:25:59;13.35;;;5.93;;
68192;SDS011;55012;47.562;18.414;2023-06-14T02:28:24;11.77;;;5.85;;
68192;SDS011;55012;47.562;18.414;2023-06-14T02:30:50;13.07;;;5.90;;
68192;SDS011;55012;47.562;18.414;2023-06-14T02:33:15;8.75;;;4.97;;
68192;SDS011;55012;47.562;18.414;2023-06-14T02:35:42;12.68;;;7.30;;
68192;SDS011;55012;47.562;18.414;2023-06-14T02:38:08;9.00;;;5.78;;
68192;SDS011;55012;47.562;18.414;2023-06-14T02:40:33;9.98;;;5.10;;
68192;SDS011;55012;47.562;18.414;2023-06-14T02:42:59;10.52;;;5.75;;
68192;SDS011;55012;47.562;18.414;2023-06-14T02:45:24;10.27;;;6.32;;
68192;SDS011;55012;47.562;18.414;2023-06-14T02:47:50;19.08;;;8.63;;
68192;SDS011;55012;47.562;18.414;2023-06-14T02:50:16;14.00;;;7.90;;
68192;SDS011;55012;47.562;18.414;2023-06-14T02:52:42;12.32;;;6.70;;
68192;SDS011;55012;47.562;18.414;2023-06-14T02:55:09;11.27;;;5.63;;
68192;SDS011;55012;47.562;18.414;2023-06-14T02:57:35;11.70;;;6.82;;
68192;SDS011;55012;47.562;18.414;2023-06-14T03:00:00;14.05;;;6.50;;
68192;SDS011;55012;47.562;18.414;2023-06-14T03:02:26;12.45;;;5.97;;
68192;SDS011;55012;47.562;18.414;2023-06-14T03:04:51;10.57;;;6.03;;
68192;SDS011;55012;47.562;18.414;2023-06-14T03:07:17;11.45;;;6.28;;
68192;SDS011;55012;47.562;18.414;2023-06-14T03:09:44;12.85;;;6.60;;
68192;SDS011;55012;47.562;18.414;2023-06-14T03:12:10;10.52;;;5.78;;
68192;SDS011;55012;47.562;18.414;2023-06-14T03:14:36;11.27;;;5.63;;
68192;SDS011;55012;47.562;18.414;2023-06-14T03:17:04;11.18;;;5.78;;
68192;SDS011;55012;47.562;18.414;2023-06-14T03:19:30;11.35;;;6.35;;
68192;SDS011;55012;47.562;18.414;2023-06-14T03:21:55;12.95;;;6.65;;
68192;SDS011;55012;47.562;18.414;2023-06-14T03:24:24;11.15;;;5.78;;
68192;SDS011;55012;47.562;18.414;2023-06-14T03:26:52;11.32;;;5.55;;
68192;SDS011;55012;47.562;18.414;2023-06-14T03:29:18;9.13;;;5.53;;
68192;SDS011;55012;47.562;18.414;2023-06-14T03:31:56;13.77;;;5.30;;
68192;SDS011;55012;47.562;18.414;2023-06-14T03:34:25;9.82;;;5.45;;
68192;SDS011;55012;47.562;18.414;2023-06-14T03:36:51;13.73;;;6.78;;
68192;SDS011;55012;47.562;18.414;2023-06-14T03:39:17;11.82;;;6.55;;
68192;SDS011;55012;47.562;18.414;2023-06-14T03:41:43;12.13;;;6.90;;
68192;SDS011;55012;47.562;18.414;2023-06-14T03:44:08;13.75;;;7.40;;
68192;SDS011;55012;47.562;18.414;2023-06-14T03:46:33;13.60;;;6.22;;
68192;SDS011;55012;47.562;18.414;2023-06-14T03:48:59;17.60;;;7.22;;
68192;SDS011;55012;47.562;18.414;2023-06-14T03:51:25;10.93;;;6.60;;
68192;SDS011;55012;47.562;18.414;2023-06-14T03:53:51;9.23;;;5.57;;
68192;SDS011;55012;47.562;18.414;2023-06-14T03:56:16;10.55;;;5.60;;
68192;SDS011;55012;47.562;18.414;2023-06-14T03:58:42;9.43;;;5.22;;
68192;SDS011;55012;47.562;18.414;2023-06-14T04:01:07;11.50;;;6.28;;
68192;SDS011;55012;47.562;18.414;2023-06-14T04:03:33;14.27;;;6.18;;
68192;SDS011;55012;47.562;18.414;2023-06-14T04:05:58;15.00;;;6.50;;
68192;SDS011;55012;47.562;18.414;2023-06-14T04:08:25;18.17;;;7.25;;
68192;SDS011;55012;47.562;18.414;2023-06-14T04:10:50;14.85;;;6.35;;
68192;SDS011;55012;47.562;18.414;2023-06-14T04:13:16;11.25;;;5.80;;
68192;SDS011;55012;47.562;18.414;2023-06-14T04:15:42;13.07;;;6.38;;
68192;SDS011;55012;47.562;18.414;2023-06-14T04:18:08;12.50;;;6.40;;
68192;SDS011;55012;47.562;18.414;2023-06-14T04:20:34;12.05;;;6.57;;
68192;SDS011;55012;47.562;18.414;2023-06-14T04:23:10;17.17;;;7.03;;
68192;SDS011;55012;47.562;18.414;2023-06-14T04:25:38;18.00;;;6.47;;
68192;SDS011;55012;47.562;18.414;2023-06-14T04:28:03;15.30;;;6.72;;
68192;SDS011;55012;47.562;18.414;2023-06-14T04:30:29;13.45;;;6.82;;
68192;SDS011;55012;47.562;18.414;2023-06-14T04:32:56;15.15;;;7.50;;
68192;SDS011;55012;47.562;18.414;2023-06-14T04:35:22;17.13;;;7.88;;
68192;SDS011;55012;47.562;18.414;2023-06-14T04:37:50;15.40;;;7.25;;
68192;SDS011;55012;47.562;18.414;2023-06-14T04:40:16;16.98;;;6.80;;
68192;SDS011;55012;47.562;18.414;2023-06-14T04:42:42;13.63;;;7.45;;
68192;SDS011;55012;47.562;18.414;2023-06-14T04:45:11;13.05;;;6.65;;
68192;SDS011;55012;47.562;18.414;2023-06-14T04:47:38;20.27;;;7.13;;
68192;SDS011;55012;47.562;18.414;2023-06-14T04:50:03;15.18;;;7.22;;
68192;SDS011;55012;47.562;18.414;2023-06-14T04:52:29;15.43;;;8.00;;
68192;SDS011;55012;47.562;18.414;2023-06-14T04:54:55;13.32;;;7.07;;
68192;SDS011;55012;47.562;18.414;2023-06-14T04:57:22;17.98;;;9.93;;
68192;SDS011;55012;47.562;18.414;2023-06-14T04:59:50;20.52;;;8.60;;
68192;SDS011;55012;47.562;18.414;2023-06-14T05:02:20;15.93;;;7.13;;
68192;SDS011;55012;47.562;18.414;2023-06-14T05:04:49;16.83;;;7.05;;
68192;SDS011;55012;47.562;18.414;2023-06-14T05:07:15;14.80;;;7.00;;
68192;SDS011;55012;47.562;18.414;2023-06-14T05:09:41;15.73;;;6.68;;
68192;SDS011;55012;47.562;18.414;2023-06-14T05:12:06;13.70;;;6.85;;
68192;SDS011;55012;47.562;18.414;2023-06-14T05:14:36;17.70;;;7.70;;
68192;SDS011;55012;47.562;18.414;2023-06-14T05:17:02;14.35;;;7.90;;
68192;SDS011;55012;47.562;18.414;2023-06-14T05:19:27;14.82;;;6.95;;
68192;SDS011;55012;47.562;18.414;2023-06-14T05:21:53;15.02;;;6.80;;
68192;SDS011;55012;47.562;18.414;2023-06-14T05:24:19;11.43;;;6.43;;
68192;SDS011;55012;47.562;18.414;2023-06-14T05:26:45;14.80;;;7.30;;
68192;SDS011;55012;47.562;18.414;2023-06-14T05:29:11;15.60;;;6.93;;
68192;SDS011;55012;47.562;18.414;2023-06-14T05:31:37;14.50;;;6.75;;
68192;SDS011;55012;47.562;18.414;2023-06-14T05:34:03;17.63;;;6.80;;
68192;SDS011;55012;47.562;18.414;2023-06-14T05:36:29;14.60;;;6.85;;
68192;SDS011;55012;47.562;18.414;2023-06-14T05:38:55;11.40;;;6.40;;
68192;SDS011;55012;47.562;18.414;2023-06-14T05:41:27;12.27;;;6.93;;
68192;SDS011;55012;47.562;18.414;2023-06-14T05:43:54;11.52;;;6.60;;
68192;SDS011;55012;47.562;18.414;2023-06-14T05:46:20;13.10;;;6.28;;
68192;SDS011;55012;47.562;18.414;2023-06-14T05:48:49;12.15;;;6.43;;
68192;SDS011;55012;47.562;18.414;2023-06-14T05:51:15;11.27;;;6.00;;
68192;SDS011;55012;47.562;18.414;2023-06-14T05:53:44;10.55;;;5.82;;
68192;SDS011;55012;47.562;18.414;2023-06-14T05:56:13;14.38;;;6.43;;
68192;SDS011;55012;47.562;18.414;2023-06-14T05:58:39;13.07;;;6.20;;
68192;SDS011;55012;47.562;18.414;2023-06-14T06:01:05;9.95;;;5.88;;
68192;SDS011;55012;47.562;18.414;2023-06-14T06:03:31;13.45;;;6.07;;
68192;SDS011;55012;47.562;18.414;2023-06-14T06:05:57;12.75;;;6.20;;
68192;SDS011;55012;47.562;18.414;2023-06-14T06:08:23;10.88;;;6.30;;
68192;SDS011;55012;47.562;18.414;2023-06-14T06:10:49;10.63;;;6.32;;
68192;SDS011;55012;47.562;18.414;2023-06-14T06:13:14;14.95;;;6.22;;
68192;SDS011;55012;47.562;18.414;2023-06-14T06:15:40;11.05;;;5.70;;
68192;SDS011;55012;47.562;18.414;2023-06-14T06:18:06;10.35;;;5.68;;
68192;SDS011;55012;47.562;18.414;2023-06-14T06:20:31;9.98;;;6.00;;
68192;SDS011;55012;47.562;18.414;2023-06-14T06:22:57;9.25;;;5.78;;
68192;SDS011;55012;47.562;18.414;2023-06-14T06:25:25;9.32;;;6.15;;
68192;SDS011;55012;47.562;18.414;2023-06-14T06:27:52;12.40;;;5.88;;
68192;SDS011;55012;47.562;18.414;2023-06-14T06:30:19;14.27;;;7.45;;
68192;SDS011;55012;47.562;18.414;2023-06-14T06:32:45;12.00;;;7.40;;
68192;SDS011;55012;47.562;18.414;2023-06-14T06:35:11;13.35;;;7.25;;
68192;SDS011;55012;47.562;18.414;2023-06-14T06:37:37;12.23;;;7.15;;
68192;SDS011;55012;47.562;18.414;2023-06-14T06:40:02;13.20;;;6.97;;
68192;SDS011;55012;47.562;18.414;2023-06-14T06:42:32;9.90;;;6.18;;
68192;SDS011;55012;47.562;18.414;2023-06-14T06:44:57;11.25;;;6.20;;
68192;SDS011;55012;47.562;18.414;2023-06-14T06:47:23;10.02;;;6.15;;
68192;SDS011;55012;47.562;18.414;2023-06-14T06:49:49;13.00;;;6.68;;
68192;SDS011;55012;47.562;18.414;2023-06-14T06:52:15;10.50;;;6.03;;
68192;SDS011;55012;47.562;18.414;2023-06-14T06:54:40;10.57;;;6.75;;
68192;SDS011;55012;47.562;18.414;2023-06-14T06:57:06;10.50;;;6.90;;
68192;SDS011;55012;47.562;18.414;2023-06-14T06:59:32;10.85;;;6.95;;
68192;SDS011;55012;47.562;18.414;2023-06-14T07:01:58;9.70;;;6.28;;
68192;SDS011;55012;47.562;18.414;2023-06-14T07:04:24;9.38;;;5.90;;
68192;SDS011;55012;47.562;18.414;2023-06-14T07:06:50;12.45;;;6.95;;
68192;SDS011;55012;47.562;18.414;2023-06-14T07:09:15;11.88;;;6.93;;
68192;SDS011;55012;47.562;18.414;2023-06-14T07:11:42;14.52;;;7.85;;
68192;SDS011;55012;47.562;18.414;2023-06-14T07:14:08;13.20;;;7.03;;
68192;SDS011;55012;47.562;18.414;2023-06-14T07:16:34;11.38;;;7.00;;
68192;SDS011;55012;47.562;18.414;2023-06-14T07:19:00;12.07;;;6.90;;
68192;SDS011;55012;47.562;18.414;2023-06-14T07:21:27;14.35;;;7.35;;
68192;SDS011;55012;47.562;18.414;2023-06-14T07:23:53;12.75;;;7.25;;
68192;SDS011;55012;47.562;18.414;2023-06-14T07:26:19;12.38;;;6.68;;
68192;SDS011;55012;47.562;18.414;2023-06-14T07:28:45;12.27;;;6.43;;
68192;SDS011;55012;47.562;18.414;2023-06-14T07:31:12;12.23;;;6.30;;
68192;SDS011;55012;47.562;18.414;2023-06-14T07:33:37;12.43;;;6.78;;
68192;SDS011;55012;47.562;18.414;2023-06-14T07:36:03;14.07;;;7.20;;
68192;SDS011;55012;47.562;18.414;2023-06-14T07:38:29;10.85;;;6.30;;
68192;SDS011;55012;47.562;18.414;2023-06-14T07:40:54;14.32;;;6.93;;
68192;SDS011;55012;47.562;18.414;2023-06-14T07:43:19;10.10;;;5.82;;
68192;SDS011;55012;47.562;18.414;2023-06-14T07:45:45;10.88;;;5.70;;
68192;SDS011;55012;47.562;18.414;2023-06-14T07:48:11;13.82;;;7.22;;
68192;SDS011;55012;47.562;18.414;2023-06-14T07:50:36;12.45;;;7.35;;
68192;SDS011;55012;47.562;18.414;2023-06-14T07:53:02;11.73;;;6.88;;
68192;SDS011;55012;47.562;18.414;2023-06-14T07:55:27;14.30;;;6.78;;
68192;SDS011;55012;47.562;18.414;2023-06-14T07:57:53;17.48;;;6.30;;
68192;SDS011;55012;47.562;18.414;2023-06-14T08:00:19;13.13;;;6.15;;
68192;SDS011;55012;47.562;18.414;2023-06-14T08:02:45;15.77;;;6.57;;
68192;SDS011;55012;47.562;18.414;2023-06-14T08:05:11;13.93;;;6.60;;
68192;SDS011;55012;47.562;18.414;2023-06-14T08:07:38;19.27;;;6.57;;
68192;SDS011;55012;47.562;18.414;2023-06-14T08:10:04;13.35;;;7.07;;
68192;SDS011;55012;47.562;18.414;2023-06-14T08:12:31;16.25;;;7.40;;
68192;SDS011;55012;47.562;18.414;2023-06-14T08:14:57;12.23;;;7.28;;
68192;SDS011;55012;47.562;18.414;2023-06-14T08:17:22;15.55;;;7.10;;
68192;SDS011;55012;47.562;18.414;2023-06-14T08:19:48;13.65;;;5.80;;
68192;SDS011;55012;47.562;18.414;2023-06-14T08:22:13;12.25;;;5.72;;
68192;SDS011;55012;47.562;18.414;2023-06-14T08:24:38;10.45;;;5.88;;
68192;SDS011;55012;47.562;18.414;2023-06-14T08:27:07;9.75;;;5.65;;
68192;SDS011;55012;47.562;18.414;2023-06-14T08:29:32;11.02;;;6.43;;
68192;SDS011;55012;47.562;18.414;2023-06-14T08:31:58;11.68;;;6.70;;
68192;SDS011;55012;47.562;18.414;2023-06-14T08:34:23;18.15;;;7.72;;
68192;SDS011;55012;47.562;18.414;2023-06-14T08:36:52;21.80;;;7.13;;
68192;SDS011;55012;47.562;18.414;2023-06-14T08:39:17;14.10;;;6.28;;
68192;SDS011;55012;47.562;18.414;2023-06-14T08:41:45;12.82;;;6.43;;
68192;SDS011;55012;47.562;18.414;2023-06-14T08:44:12;15.85;;;6.43;;
68192;SDS011;55012;47.562;18.414;2023-06-14T08:46:38;15.15;;;6.75;;
68192;SDS011;55012;47.562;18.414;2023-06-14T08:49:04;10.85;;;5.60;;
68192;SDS011;55012;47.562;18.414;2023-06-14T08:51:31;11.13;;;6.20;;
68192;SDS011;55012;47.562;18.414;2023-06-14T08:53:59;11.02;;;5.78;;
68192;SDS011;55012;47.562;18.414;2023-06-14T08:56:27;10.80;;;5.60;;
68192;SDS011;55012;47.562;18.414;2023-06-14T08:58:54;9.80;;;6.05;;
68192;SDS011;55012;47.562;18.414;2023-06-14T09:01:21;11.82;;;6.05;;
68192;SDS011;55012;47.562;18.414;2023-06-14T09:03:48;10.80;;;5.93;;
68192;SDS011;55012;47.562;18.414;2023-06-14T09:06:14;8.98;;;5.72;;
68192;SDS011;55012;47.562;18.414;2023-06-14T09:08:43;13.13;;;6.05;;
68192;SDS011;55012;47.562;18.414;2023-06-14T09:11:14;11.30;;;6.20;;
68192;SDS011;55012;47.562;18.414;2023-06-14T09:13:40;10.45;;;6.93;;
68192;SDS011;55012;47.562;18.414;2023-06-14T09:16:07;10.15;;;6.60;;
68192;SDS011;55012;47.562;18.414;2023-06-14T09:18:36;11.88;;;6.78;;
68192;SDS011;55012;47.562;18.414;2023-06-14T09:21:08;10.40;;;6.70;;
68192;SDS011;55012;47.562;18.414;2023-06-14T09:23:40;11.77;;;6.82;;
68192;SDS011;55012;47.562;18.414;2023-06-14T09:26:10;9.00;;;6.38;;
68192;SDS011;55012;47.562;18.414;2023-06-14T09:28:41;10.40;;;6.63;;
68192;SDS011;55012;47.562;18.414;2023-06-14T09:31:07;8.93;;;6.25;;
68192;SDS011;55012;47.562;18.414;2023-06-14T09:33:34;9.20;;;6.47;;
68192;SDS011;55012;47.562;18.414;2023-06-14T09:36:00;9.90;;;6.10;;
68192;SDS011;55012;47.562;18.414;2023-06-14T09:38:26;11.88;;;6.32;;
68192;SDS011;55012;47.562;18.414;2023-06-14T09:40:51;10.05;;;6.03;;
68192;SDS011;55012;47.562;18.414;2023-06-14T09:43:17;9.15;;;6.00;;
68192;SDS011;55012;47.562;18.414;2023-06-14T09:45:43;12.32;;;6.80;;
68192;SDS011;55012;47.562;18.414;2023-06-14T09:48:11;14.93;;;6.38;;
68192;SDS011;55012;47.562;18.414;2023-06-14T09:50:37;9.85;;;6.13;;
68192;SDS011;55012;47.562;18.414;2023-06-14T09:53:03;11.05;;;5.95;;
68192;SDS011;55012;47.562;18.414;2023-06-14T09:55:34;11.80;;;5.88;;
68192;SDS011;55012;47.562;18.414;2023-06-14T09:58:04;11.98;;;6.35;;
68192;SDS011;55012;47.562;18.414;2023-06-14T10:00:31;10.02;;;5.53;;
68192;SDS011;55012;47.562;18.414;2023-06-14T10:03:00;9.70;;;5.57;;
68192;SDS011;55012;47.562;18.414;2023-06-14T10:05:31;9.77;;;6.30;;
68192;SDS011;55012;47.562;18.414;2023-06-14T10:08:04;10.48;;;6.30;;
68192;SDS011;55012;47.562;18.414;2023-06-14T10:10:33;8.88;;;6.00;;
68192;SDS011;55012;47.562;18.414;2023-06-14T10:12:59;10.90;;;6.10;;
68192;SDS011;55012;47.562;18.414;2023-06-14T10:18:08;10.75;;;5.97;;
68192;SDS011;55012;47.562;18.414;2023-06-14T10:21:08;10.00;;;6.72;;
68192;SDS011;55012;47.562;18.414;2023-06-14T10:23:49;11.52;;;6.63;;
68192;SDS011;55012;47.562;18.414;2023-06-14T10:26:19;12.20;;;6.55;;
68192;SDS011;55012;47.562;18.414;2023-06-14T10:29:07;8.98;;;6.13;;
68192;SDS011;55012;47.562;18.414;2023-06-14T10:31:40;8.30;;;6.13;;
68192;SDS011;55012;47.562;18.414;2023-06-14T10:34:11;8.75;;;5.78;;
68192;SDS011;55012;47.562;18.414;2023-06-14T10:37:06;10.00;;;6.35;;
68192;SDS011;55012;47.562;18.414;2023-06-14T10:39:42;9.80;;;5.80;;
68192;SDS011;55012;47.562;18.414;2023-06-14T10:42:11;12.75;;;6.40;;
68192;SDS011;55012;47.562;18.414;2023-06-14T10:44:45;8.25;;;5.65;;
68192;SDS011;55012;47.562;18.414;2023-06-14T10:47:26;10.65;;;5.75;;
68192;SDS011;55012;47.562;18.414;2023-06-14T10:49:54;7.60;;;5.05;;
68192;SDS011;55012;47.562;18.414;2023-06-14T10:52:23;7.80;;;5.47;;
68192;SDS011;55012;47.562;18.414;2023-06-14T10:57:29;7.13;;;5.07;;
68192;SDS011;55012;47.562;18.414;2023-06-14T10:59:57;9.90;;;5.00;;
68192;SDS011;55012;47.562;18.414;2023-06-14T11:08:18;6.47;;;3.90;;
68192;SDS011;55012;47.562;18.414;2023-06-14T11:10:49;7.63;;;4.38;;
68192;SDS011;55012;47.562;18.414;2023-06-14T11:13:16;5.90;;;3.70;;
68192;SDS011;55012;47.562;18.414;2023-06-14T11:15:45;6.65;;;3.78;;
68192;SDS011;55012;47.562;18.414;2023-06-14T11:18:13;4.93;;;3.47;;
68192;SDS011;55012;47.562;18.414;2023-06-14T11:20:40;6.15;;;3.92;;
68192;SDS011;55012;47.562;18.414;2023-06-14T11:23:05;6.78;;;3.85;;
68192;SDS011;55012;47.562;18.414;2023-06-14T11:25:31;5.35;;;3.47;;
68192;SDS011;55012;47.562;18.414;2023-06-14T11:27:57;5.05;;;3.22;;
68192;SDS011;55012;47.562;18.414;2023-06-14T11:30:24;5.13;;;3.55;;
68192;SDS011;55012;47.562;18.414;2023-06-14T11:32:53;4.53;;;3.50;;
68192;SDS011;55012;47.562;18.414;2023-06-14T11:35:23;6.95;;;3.65;;
68192;SDS011;55012;47.562;18.414;2023-06-14T11:37:52;6.15;;;3.38;;
68192;SDS011;55012;47.562;18.414;2023-06-14T11:40:23;5.63;;;3.58;;
68192;SDS011;55012;47.562;18.414;2023-06-14T11:42:49;4.90;;;3.88;;
68192;SDS011;55012;47.562;18.414;2023-06-14T11:45:22;6.38;;;3.60;;
68192;SDS011;55012;47.562;18.414;2023-06-14T11:47:48;5.47;;;3.90;;
68192;SDS011;55012;47.562;18.414;2023-06-14T11:50:13;6.22;;;3.70;;
68192;SDS011;55012;47.562;18.414;2023-06-14T11:52:39;5.47;;;3.38;;
68192;SDS011;55012;47.562;18.414;2023-06-14T11:55:05;6.15;;;3.63;;
68192;SDS011;55012;47.562;18.414;2023-06-14T11:57:34;5.60;;;3.55;;
68192;SDS011;55012;47.562;18.414;2023-06-14T12:00:04;5.18;;;3.47;;
68192;SDS011;55012;47.562;18.414;2023-06-14T12:02:33;5.18;;;3.38;;
68192;SDS011;55012;47.562;18.414;2023-06-14T12:05:03;5.00;;;3.70;;
68192;SDS011;55012;47.562;18.414;2023-06-14T12:07:30;5.43;;;3.58;;
68192;SDS011;55012;47.562;18.414;2023-06-14T12:12:22;4.60;;;2.97;;
68192;SDS011;55012;47.562;18.414;2023-06-14T12:14:47;6.07;;;3.20;;
68192;SDS011;55012;47.562;18.414;2023-06-14T12:17:16;6.43;;;3.65;;
68192;SDS011;55012;47.562;18.414;2023-06-14T12:19:43;5.22;;;3.28;;
68192;SDS011;55012;47.562;18.414;2023-06-14T12:22:10;6.50;;;3.70;;
68192;SDS011;55012;47.562;18.414;2023-06-14T12:24:36;5.85;;;3.30;;
68192;SDS011;55012;47.562;18.414;2023-06-14T12:27:03;4.55;;;3.40;;
68192;SDS011;55012;47.562;18.414;2023-06-14T12:29:29;4.85;;;3.33;;
68192;SDS011;55012;47.562;18.414;2023-06-14T12:31:55;5.65;;;3.33;;
68192;SDS011;55012;47.562;18.414;2023-06-14T12:34:25;6.45;;;2.95;;
68192;SDS011;55012;47.562;18.414;2023-06-14T12:36:52;5.07;;;3.10;;
68192;SDS011;55012;47.562;18.414;2023-06-14T12:39:21;6.82;;;3.30;;
68192;SDS011;55012;47.562;18.414;2023-06-14T12:41:47;4.60;;;3.17;;
68192;SDS011;55012;47.562;18.414;2023-06-14T12:44:13;4.82;;;3.30;;
68192;SDS011;55012;47.562;18.414;2023-06-14T12:46:39;4.60;;;3.30;;
68192;SDS011;55012;47.562;18.414;2023-06-14T12:49:12;6.95;;;3.45;;
68192;SDS011;55012;47.562;18.414;2023-06-14T12:51:38;4.05;;;3.17;;
68192;SDS011;55012;47.562;18.414;2023-06-14T12:54:05;5.63;;;3.42;;
68192;SDS011;55012;47.562;18.414;2023-06-14T12:56:31;5.32;;;3.60;;
68192;SDS011;55012;47.562;18.414;2023-06-14T12:58:56;5.90;;;4.10;;
68192;SDS011;55012;47.562;18.414;2023-06-14T13:01:23;7.32;;;4.57;;
68192;SDS011;55012;47.562;18.414;2023-06-14T13:03:49;6.97;;;3.63;;
68192;SDS011;55012;47.562;18.414;2023-06-14T13:06:16;4.60;;;3.50;;
68192;SDS011;55012;47.562;18.414;2023-06-14T13:08:42;7.80;;;5.63;;
68192;SDS011;55012;47.562;18.414;2023-06-14T13:11:08;7.65;;;3.33;;
68192;SDS011;55012;47.562;18.414;2023-06-14T13:13:33;5.15;;;3.20;;
68192;SDS011;55012;47.562;18.414;2023-06-14T13:15:59;7.55;;;5.43;;
68192;SDS011;55012;47.562;18.414;2023-06-14T13:18:25;7.35;;;3.90;;
68192;SDS011;55012;47.562;18.414;2023-06-14T13:20:51;5.63;;;3.80;;
68192;SDS011;55012;47.562;18.414;2023-06-14T13:23:16;5.55;;;3.85;;
68192;SDS011;55012;47.562;18.414;2023-06-14T13:25:42;8.05;;;4.55;;
68192;SDS011;55012;47.562;18.414;2023-06-14T13:28:08;4.82;;;3.40;;
68192;SDS011;55012;47.562;18.414;2023-06-14T13:30:33;9.30;;;6.38;;
68192;SDS011;55012;47.562;18.414;2023-06-14T13:32:59;7.55;;;3.92;;
68192;SDS011;55012;47.562;18.414;2023-06-14T13:35:24;7.10;;;3.80;;
68192;SDS011;55012;47.562;18.414;2023-06-14T13:37:50;7.22;;;3.83;;
68192;SDS011;55012;47.562;18.414;2023-06-14T13:40:17;4.25;;;3.70;;
68192;SDS011;55012;47.562;18.414;2023-06-14T13:42:43;8.02;;;3.67;;
68192;SDS011;55012;47.562;18.414;2023-06-14T13:45:09;4.53;;;3.38;;
68192;SDS011;55012;47.562;18.414;2023-06-14T13:47:36;5.97;;;4.00;;
68192;SDS011;55012;47.562;18.414;2023-06-14T13:50:02;7.97;;;4.28;;
68192;SDS011;55012;47.562;18.414;2023-06-14T13:52:28;9.15;;;6.13;;
68192;SDS011;55012;47.562;18.414;2023-06-14T13:54:53;9.35;;;5.68;;
68192;SDS011;55012;47.562;18.414;2023-06-14T13:57:19;5.80;;;4.05;;
68192;SDS011;55012;47.562;18.414;2023-06-14T13:59:44;5.82;;;3.40;;
68192;SDS011;55012;47.562;18.414;2023-06-14T14:02:10;4.75;;;2.90;;
68192;SDS011;55012;47.562;18.414;2023-06-14T14:04:36;5.90;;;3.30;;
68192;SDS011;55012;47.562;18.414;2023-06-14T14:07:03;5.07;;;3.35;;
68192;SDS011;55012;47.562;18.414;2023-06-14T14:09:33;4.80;;;3.60;;
68192;SDS011;55012;47.562;18.414;2023-06-14T14:12:02;5.43;;;3.53;;
68192;SDS011;55012;47.562;18.414;2023-06-14T14:14:28;5.00;;;3.50;;
68192;SDS011;55012;47.562;18.414;2023-06-14T14:16:53;5.10;;;3.53;;
68192;SDS011;55012;47.562;18.414;2023-06-14T14:19:22;4.40;;;3.40;;
68192;SDS011;55012;47.562;18.414;2023-06-14T14:21:48;6.05;;;3.45;;
68192;SDS011;55012;47.562;18.414;2023-06-14T14:24:13;5.60;;;3.70;;
68192;SDS011;55012;47.562;18.414;2023-06-14T14:26:39;5.80;;;4.20;;
68192;SDS011;55012;47.562;18.414;2023-06-14T14:29:05;7.00;;;3.70;;
68192;SDS011;55012;47.562;18.414;2023-06-14T14:31:31;5.25;;;3.72;;
68192;SDS011;55012;47.562;18.414;2023-06-14T14:33:57;5.22;;;3.70;;
68192;SDS011;55012;47.562;18.414;2023-06-14T14:36:22;5.55;;;3.55;;
68192;SDS011;55012;47.562;18.414;2023-06-14T14:38:48;6.40;;;3.50;;
68192;SDS011;55012;47.562;18.414;2023-06-14T14:41:13;6.05;;;3.65;;
68192;SDS011;55012;47.562;18.414;2023-06-14T14:43:39;5.93;;;4.15;;
68192;SDS011;55012;47.562;18.414;2023-06-14T14:46:04;7.57;;;3.75;;